createdAt,value
2018-09-15T00:00:59.439Z,100782.24
2018-09-15T00:03:27.900Z,100786.31
2018-09-15T00:05:56.417Z,100795.64
2018-09-15T00:08:24.888Z,100792.39
2018-09-15T00:10:53.408Z,100796.34
2018-09-15T00:13:23.211Z,100793.22
2018-09-15T00:15:51.708Z,100793.58
2018-09-15T00:18:20.211Z,100787.36
2018-09-15T00:20:48.726Z,100782.87
2018-09-15T00:23:17.136Z,100784.50
2018-09-15T00:25:45.852Z,100782.10
2018-09-15T00:28:14.305Z,100778.47
2018-09-15T00:30:43.139Z,100780.05
2018-09-15T00:33:11.685Z,100782.16
2018-09-15T00:35:40.336Z,100783.27
2018-09-15T00:38:08.785Z,100784.45
2018-09-15T00:40:37.247Z,100782.19
2018-09-15T00:43:06.125Z,100777.95
2018-09-15T00:45:34.690Z,100785.56
2018-09-15T00:48:03.144Z,100786.00
2018-09-15T00:50:31.574Z,100782.65
2018-09-15T00:53:00.037Z,100791.56
2018-09-15T00:55:28.547Z,100790.12
2018-09-15T00:57:57.071Z,100780.58
2018-09-15T01:00:25.586Z,100792.23
2018-09-15T01:02:54.043Z,100795.55
2018-09-15T01:05:22.691Z,100798.41
2018-09-15T01:07:51.207Z,100802.59
2018-09-15T01:10:19.622Z,100803.00
2018-09-15T01:12:48.129Z,100800.70
2018-09-15T01:15:16.910Z,100796.05
2018-09-15T01:17:45.466Z,100790.81
2018-09-15T01:20:14.358Z,100789.86
2018-09-15T01:22:42.915Z,100794.87
2018-09-15T01:25:11.326Z,100802.91
2018-09-15T01:27:39.775Z,100797.25
2018-09-15T01:30:08.281Z,100794.42
2018-09-15T01:32:36.670Z,100807.44
2018-09-15T01:35:05.194Z,100810.14
2018-09-15T01:37:33.721Z,100810.93
2018-09-15T01:40:02.150Z,100808.19
2018-09-15T01:42:30.706Z,100813.39
2018-09-15T01:44:59.137Z,100812.52
2018-09-15T01:47:27.639Z,100818.50
2018-09-15T01:49:56.226Z,100828.62
2018-09-15T01:52:24.759Z,100834.31
2018-09-15T01:54:53.198Z,100830.16
2018-09-15T01:57:21.882Z,100835.02
2018-09-15T01:59:50.386Z,100837.14
2018-09-15T02:02:18.815Z,100841.05
2018-09-15T02:04:47.705Z,100843.02
2018-09-15T02:07:16.314Z,100845.25
2018-09-15T02:09:44.750Z,100854.92
2018-09-15T02:12:13.198Z,100851.77
2018-09-15T02:14:41.583Z,100853.37
2018-09-15T02:17:10.290Z,100860.75
2018-09-15T02:19:38.977Z,100854.24
2018-09-15T02:22:07.463Z,100852.45
2018-09-15T02:24:36.294Z,100853.83
2018-09-15T02:27:04.754Z,100850.44
2018-09-15T02:29:33.247Z,100851.96
2018-09-15T02:32:01.756Z,100850.37
2018-09-15T02:34:30.393Z,100850.06
2018-09-15T02:36:58.924Z,100854.16
2018-09-15T02:39:27.490Z,100858.80
2018-09-15T02:41:55.923Z,100865.34
2018-09-15T02:44:24.317Z,100858.23
2018-09-15T02:46:52.786Z,100861.16
2018-09-15T02:49:21.347Z,100860.86
2018-09-15T02:51:49.739Z,100866.11
2018-09-15T02:54:18.157Z,100861.63
2018-09-15T02:56:46.668Z,100856.48
2018-09-15T02:59:15.146Z,100859.41
2018-09-15T03:01:43.555Z,100858.31
2018-09-15T03:04:12.118Z,100856.03
2018-09-15T03:06:40.547Z,100861.05
2018-09-15T03:09:11.127Z,100867.66
2018-09-15T03:11:39.648Z,100862.75
2018-09-15T03:14:08.139Z,100866.14
2018-09-15T03:16:37.174Z,100858.42
2018-09-15T03:19:05.807Z,100864.66
2018-09-15T03:21:34.212Z,100868.12
2018-09-15T03:24:02.884Z,100877.47
2018-09-15T03:26:31.718Z,100887.61
2018-09-15T03:29:00.166Z,100893.03
2018-09-15T03:31:28.711Z,100898.11
2018-09-15T03:33:57.100Z,100900.73
2018-09-15T03:36:25.539Z,100901.23
2018-09-15T03:38:54.195Z,100894.66
2018-09-15T03:41:22.675Z,100896.02
2018-09-15T03:43:51.035Z,100903.41
2018-09-15T03:46:19.715Z,100902.97
2018-09-15T03:48:48.210Z,100901.23
2018-09-15T03:51:16.615Z,100901.80
2018-09-15T03:53:45.155Z,100904.33
2018-09-15T03:56:13.834Z,100898.20
2018-09-15T03:58:42.211Z,100902.55
2018-09-15T04:01:10.674Z,100902.48
2018-09-15T04:03:39.197Z,100900.47
2018-09-15T04:06:07.626Z,100903.95
2018-09-15T04:08:36.430Z,100898.27
2018-09-15T04:11:05.018Z,100898.30
2018-09-15T04:13:33.434Z,100902.13
2018-09-15T04:16:02.030Z,100908.58
2018-09-15T04:18:30.778Z,100905.77
2018-09-15T04:20:59.238Z,100901.13
2018-09-15T04:23:27.857Z,100900.97
2018-09-15T04:25:56.263Z,100908.01
2018-09-15T04:28:24.799Z,100901.63
2018-09-15T04:30:53.204Z,100905.83
2018-09-15T04:33:21.735Z,100912.50
2018-09-15T04:35:50.183Z,100908.73
2018-09-15T04:38:18.612Z,100904.11
2018-09-15T04:40:47.070Z,100911.94
2018-09-15T04:43:15.543Z,100907.73
2018-09-15T04:45:44.134Z,100907.67
2018-09-15T04:48:12.510Z,100904.87
2018-09-15T04:50:40.955Z,100906.17
2018-09-15T04:53:09.471Z,100911.36
2018-09-15T04:55:37.891Z,100921.53
2018-09-15T04:58:06.351Z,100925.64
2018-09-15T05:00:34.938Z,100939.84
2018-09-15T05:03:03.478Z,100939.98
2018-09-15T05:05:32.047Z,100952.80
2018-09-15T05:08:00.556Z,100964.09
2018-09-15T05:10:29.054Z,100965.49
2018-09-15T05:12:57.502Z,100959.71
2018-09-15T05:15:26.081Z,100966.92
2018-09-15T05:17:54.498Z,100966.53
2018-09-15T05:20:22.977Z,100970.95
2018-09-15T05:22:51.386Z,100970.77
2018-09-15T05:25:19.855Z,100974.00
2018-09-15T05:27:48.358Z,100984.42
2018-09-15T05:30:17.186Z,100980.48
2018-09-15T05:32:45.695Z,100983.36
2018-09-15T05:35:14.219Z,100979.95
2018-09-15T05:37:42.627Z,100979.10
2018-09-15T05:40:11.132Z,100983.00
2018-09-15T05:42:39.526Z,100987.28
2018-09-15T05:45:08.295Z,100998.80
2018-09-15T05:47:36.762Z,101003.77
2018-09-15T05:50:05.526Z,101008.59
2018-09-15T05:52:34.187Z,101008.70
2018-09-15T05:55:02.739Z,101013.88
2018-09-15T05:57:31.207Z,101011.78
2018-09-15T05:59:59.887Z,101010.66
2018-09-15T06:02:28.411Z,101014.57
2018-09-15T06:04:56.802Z,101012.53
2018-09-15T06:07:25.499Z,101006.02
2018-09-15T06:09:53.891Z,101011.47
2018-09-15T06:12:22.339Z,101015.05
2018-09-15T06:14:50.996Z,101021.96
2018-09-15T06:17:19.455Z,101013.91
2018-09-15T06:19:47.847Z,101019.42
2018-09-15T06:22:16.363Z,101025.88
2018-09-15T06:24:44.871Z,101022.83
2018-09-15T06:27:13.282Z,101024.67
2018-09-15T06:29:41.767Z,101028.75
2018-09-15T06:32:10.272Z,101024.66
2018-09-15T06:34:38.831Z,101031.95
2018-09-15T06:37:07.372Z,101022.67
2018-09-15T06:39:35.847Z,101021.33
2018-09-15T06:42:04.295Z,101016.27
2018-09-15T06:44:32.966Z,101028.03
2018-09-15T06:47:01.482Z,101024.08
2018-09-15T06:49:29.894Z,101025.09
2018-09-15T06:51:58.351Z,101030.66
2018-09-15T06:54:26.795Z,101027.41
2018-09-15T06:56:55.231Z,101028.06
2018-09-15T06:59:23.738Z,101031.08
2018-09-15T07:01:52.326Z,101032.28
2018-09-15T07:04:20.838Z,101030.37
2018-09-15T07:06:49.376Z,101035.67
2018-09-15T07:09:17.855Z,101046.03
2018-09-15T07:11:46.343Z,101036.66
2018-09-15T07:14:14.996Z,101046.73
2018-09-15T07:16:43.478Z,101050.22
2018-09-15T07:19:11.915Z,101043.04
2018-09-15T07:21:40.682Z,101046.19
2018-09-15T07:24:09.230Z,101053.32
2018-09-15T07:26:37.742Z,101049.99
2018-09-15T07:29:06.335Z,101052.73
2018-09-15T07:31:35.030Z,101054.36
2018-09-15T07:34:03.482Z,101058.08
2018-09-15T07:36:32.031Z,101053.42
2018-09-15T07:39:00.486Z,101053.37
2018-09-15T07:41:28.950Z,101052.89
2018-09-15T07:43:57.743Z,101062.17
2018-09-15T07:46:26.146Z,101063.44
2018-09-15T07:48:54.687Z,101059.88
2018-09-15T07:51:23.343Z,101064.59
2018-09-15T07:53:52.255Z,101063.62
2018-09-15T07:56:20.786Z,101065.69
2018-09-15T07:58:49.255Z,101061.25
2018-09-15T08:01:17.682Z,101067.77
2018-09-15T08:03:46.182Z,101073.30
2018-09-15T08:06:14.815Z,101066.79
2018-09-15T08:08:43.323Z,101069.00
2018-09-15T08:11:12.171Z,101064.30
2018-09-15T08:13:40.507Z,101067.23
2018-09-15T08:16:09.133Z,101068.84
2018-09-15T08:18:37.575Z,101067.66
2018-09-15T08:21:06.162Z,101066.11
2018-09-15T08:23:34.643Z,101073.28
2018-09-15T08:26:03.244Z,101078.03
2018-09-15T08:28:31.658Z,101076.84
2018-09-15T08:31:00.178Z,101083.89
2018-09-15T08:33:28.667Z,101077.89
2018-09-15T08:35:57.655Z,101079.30
2018-09-15T08:38:26.140Z,101083.86
2018-09-15T08:40:54.594Z,101083.34
2018-09-15T08:43:23.087Z,101086.83
2018-09-15T08:45:53.291Z,101084.80
2018-09-15T08:48:22.355Z,101089.66
2018-09-15T08:50:50.838Z,101087.78
2018-09-15T08:53:19.293Z,101094.25
2018-09-15T08:55:47.837Z,101091.27
2018-09-15T08:58:16.474Z,101089.02
2018-09-15T09:00:44.911Z,101101.26
2018-09-15T09:03:13.703Z,101091.56
2018-09-15T09:05:42.231Z,101089.16
2018-09-15T09:08:10.654Z,101095.75
2018-09-15T09:10:39.148Z,101103.75
2018-09-15T09:13:07.824Z,101096.14
2018-09-15T09:15:36.366Z,101094.34
2018-09-15T09:18:04.865Z,101090.98
2018-09-15T09:20:33.770Z,101089.81
2018-09-15T09:23:02.256Z,101085.91
2018-09-15T09:25:30.869Z,101086.98
2018-09-15T09:27:59.602Z,101093.55
2018-09-15T09:30:28.162Z,101096.09
2018-09-15T09:32:56.638Z,101098.22
2018-09-15T09:35:25.326Z,101087.31
2018-09-15T09:37:53.802Z,101088.20
2018-09-15T09:40:22.406Z,101083.43
2018-09-15T09:42:51.232Z,101086.89
2018-09-15T09:45:20.522Z,101081.33
2018-09-15T09:47:49.029Z,101086.19
2018-09-15T09:50:17.683Z,101084.20
2018-09-15T09:52:46.095Z,101083.33
2018-09-15T09:55:14.656Z,101078.36
2018-09-15T09:57:43.098Z,101080.68
2018-09-15T10:00:15.701Z,101068.96
2018-09-15T10:02:44.419Z,101076.23
2018-09-15T10:05:12.879Z,101069.69
2018-09-15T10:07:41.418Z,101074.31
2018-09-15T10:10:10.130Z,101069.19
2018-09-15T10:12:38.576Z,101069.56
2018-09-15T10:15:07.103Z,101068.17
2018-09-15T10:17:35.926Z,101071.13
2018-09-15T10:20:04.483Z,101069.50
2018-09-15T10:22:32.943Z,101063.53
2018-09-15T10:25:01.773Z,101070.67
2018-09-15T10:27:30.263Z,101066.43
2018-09-15T10:29:58.686Z,101068.84
2018-09-15T10:32:27.400Z,101062.52
2018-09-15T10:34:55.843Z,101065.56
2018-09-15T10:37:24.328Z,101067.22
2018-09-15T10:39:53.195Z,101065.33
2018-09-15T10:42:21.710Z,101062.73
2018-09-15T10:44:50.149Z,101062.40
2018-09-15T10:47:18.966Z,101072.23
2018-09-15T10:49:47.556Z,101070.75
2018-09-15T10:52:16.127Z,101075.66
2018-09-15T10:54:44.951Z,101071.78
2018-09-15T10:57:13.459Z,101072.13
2018-09-15T10:59:41.980Z,101072.77
2018-09-15T11:02:14.475Z,101077.84
2018-09-15T11:04:44.766Z,101069.80
2018-09-15T11:07:13.431Z,101062.93
2018-09-15T11:09:41.999Z,101068.83
2018-09-15T11:12:10.714Z,101062.62
2018-09-15T11:14:39.117Z,101069.41
2018-09-15T11:17:07.582Z,101067.00
2018-09-15T11:19:36.079Z,101066.86
2018-09-15T11:22:05.058Z,101076.55
2018-09-15T11:24:34.722Z,101063.41
2018-09-15T11:27:03.859Z,101063.98
2018-09-15T11:29:32.263Z,101075.79
2018-09-15T11:32:00.983Z,101063.22
2018-09-15T11:34:29.515Z,101070.94
2018-09-15T11:36:57.987Z,101070.76
2018-09-15T11:39:26.870Z,101066.98
2018-09-15T11:41:55.338Z,101062.38
2018-09-15T11:44:23.775Z,101067.40
2018-09-15T11:46:52.350Z,101061.77
2018-09-15T11:49:20.795Z,101065.08
2018-09-15T11:51:49.299Z,101064.38
2018-09-15T11:54:17.839Z,101062.13
2018-09-15T11:56:46.458Z,101065.84
2018-09-15T11:59:15.004Z,101072.15
2018-09-15T12:01:43.559Z,101069.61
2018-09-15T12:04:11.979Z,101064.18
2018-09-15T12:06:40.428Z,101067.66
2018-09-15T12:09:09.896Z,101069.50
2018-09-15T12:11:38.406Z,101069.42
2018-09-15T12:14:07.114Z,101069.44
2018-09-15T12:16:35.707Z,101067.30
2018-09-15T12:19:04.179Z,101065.86
2018-09-15T12:21:32.680Z,101064.88
2018-09-15T12:24:01.223Z,101064.00
2018-09-15T12:26:29.863Z,101060.41
2018-09-15T12:28:58.564Z,101053.47
2018-09-15T12:31:27.075Z,101059.88
2018-09-15T12:33:55.671Z,101056.03
2018-09-15T12:36:24.252Z,101053.90
2018-09-15T12:38:52.978Z,101050.56
2018-09-15T12:41:21.415Z,101051.74
2018-09-15T12:43:49.919Z,101049.84
2018-09-15T12:46:18.478Z,101049.08
2018-09-15T12:48:47.235Z,101046.95
2018-09-15T12:51:15.694Z,101047.20
2018-09-15T12:53:44.456Z,101040.95
2018-09-15T12:56:13.113Z,101045.88
2018-09-15T12:58:41.570Z,101043.42
2018-09-15T13:01:10.130Z,101036.55
2018-09-15T13:03:38.546Z,101038.38
2018-09-15T13:06:07.390Z,101046.87
2018-09-15T13:08:35.983Z,101046.11
2018-09-15T13:11:04.604Z,101041.34
2018-09-15T13:13:33.338Z,101038.66
2018-09-15T13:16:01.919Z,101033.30
2018-09-15T13:18:30.354Z,101030.37
2018-09-15T13:20:58.858Z,101026.91
2018-09-15T13:23:27.325Z,101021.95
2018-09-15T13:25:55.806Z,101017.60
2018-09-15T13:28:24.300Z,101022.47
2018-09-15T13:30:53.079Z,101019.33
2018-09-15T13:33:21.595Z,101016.33
2018-09-15T13:35:50.037Z,101014.51
2018-09-15T13:38:18.520Z,101010.55
2018-09-15T13:40:47.059Z,101008.23
2018-09-15T13:43:15.532Z,101002.39
2018-09-15T13:45:44.208Z,101004.45
2018-09-15T13:48:12.734Z,101009.66
2018-09-15T13:50:41.195Z,101003.86
2018-09-15T13:53:09.921Z,101003.37
2018-09-15T13:55:38.396Z,101002.62
2018-09-15T13:58:06.875Z,100991.70
2018-09-15T14:00:35.631Z,100993.34
2018-09-15T14:03:04.059Z,101005.22
2018-09-15T14:05:32.530Z,100999.23
2018-09-15T14:08:01.210Z,101003.20
2018-09-15T14:10:29.704Z,101003.72
2018-09-15T14:12:58.218Z,100994.80
2018-09-15T14:15:26.767Z,100996.77
2018-09-15T14:17:55.214Z,101006.08
2018-09-15T14:20:23.647Z,101004.45
2018-09-15T14:22:52.127Z,101000.48
2018-09-15T14:25:20.595Z,100998.02
2018-09-15T14:27:49.235Z,101001.48
2018-09-15T14:30:17.731Z,101008.05
2018-09-15T14:32:46.309Z,101003.83
2018-09-15T14:35:14.814Z,101003.92
2018-09-15T14:37:43.450Z,101016.91
2018-09-15T14:40:11.932Z,101014.23
2018-09-15T14:42:40.391Z,101010.77
2018-09-15T14:45:09.187Z,101012.31
2018-09-15T14:47:37.663Z,101012.63
2018-09-15T14:50:06.222Z,101013.47
2018-09-15T14:52:34.783Z,101006.59
2018-09-15T14:55:03.231Z,101009.80
2018-09-15T14:57:31.614Z,100998.68
2018-09-15T15:00:00.419Z,100990.97
2018-09-15T15:02:29.614Z,100984.81
2018-09-15T15:04:58.183Z,100990.58
2018-09-15T15:07:26.910Z,100989.34
2018-09-15T15:09:55.370Z,101002.84
2018-09-15T15:12:23.814Z,101002.39
2018-09-15T15:14:52.379Z,101006.75
2018-09-15T15:17:20.831Z,101004.47
2018-09-15T15:19:49.301Z,101001.55
2018-09-15T15:22:17.760Z,100998.19
2018-09-15T15:24:46.323Z,100991.84
2018-09-15T15:27:14.873Z,100991.52
2018-09-15T15:29:43.419Z,100986.58
2018-09-15T15:32:11.954Z,100997.66
2018-09-15T15:34:40.476Z,100996.56
2018-09-15T15:37:09.239Z,100996.50
2018-09-15T15:39:37.659Z,101001.77
2018-09-15T15:42:06.157Z,101001.49
2018-09-15T15:44:34.746Z,101000.79
2018-09-15T15:47:03.206Z,101005.23
2018-09-15T15:49:31.640Z,100993.79
2018-09-15T15:52:00.421Z,101002.53
2018-09-15T15:54:29.373Z,101003.55
2018-09-15T15:56:57.872Z,100998.83
2018-09-15T15:59:26.499Z,101003.82
2018-09-15T16:01:55.255Z,100998.92
2018-09-15T16:04:23.737Z,100997.08
2018-09-15T16:06:52.395Z,101002.78
2018-09-15T16:09:20.806Z,101001.18
2018-09-15T16:11:49.199Z,100999.44
2018-09-15T16:14:18.000Z,101003.44
2018-09-15T16:16:46.426Z,101002.43
2018-09-15T16:19:15.643Z,101001.39
2018-09-15T16:21:44.455Z,101002.78
2018-09-15T16:24:13.049Z,101005.14
2018-09-15T16:26:41.483Z,101007.61
2018-09-15T16:29:09.995Z,101010.64
2018-09-15T16:31:38.447Z,100998.47
2018-09-15T16:34:07.015Z,100999.23
2018-09-15T16:36:35.470Z,100995.58
2018-09-15T16:39:05.324Z,100992.56
2018-09-15T16:41:33.803Z,100996.13
2018-09-15T16:44:02.335Z,100995.08
2018-09-15T16:46:30.953Z,100993.53
2018-09-15T16:48:59.424Z,101000.67
2018-09-15T16:51:28.054Z,101002.06
2018-09-15T16:53:56.486Z,100996.17
2018-09-15T16:56:25.111Z,100993.14
2018-09-15T16:58:53.838Z,100998.27
2018-09-15T17:01:22.403Z,101006.28
2018-09-15T17:03:50.843Z,101005.70
2018-09-15T17:06:19.402Z,101002.62
2018-09-15T17:08:47.827Z,101008.48
2018-09-15T17:11:16.385Z,101010.28
2018-09-15T17:13:45.002Z,101013.64
2018-09-15T17:16:13.531Z,101005.68
2018-09-15T17:18:42.055Z,101007.56
2018-09-15T17:21:10.599Z,101011.47
2018-09-15T17:23:39.031Z,101014.94
2018-09-15T17:26:07.992Z,101020.39
2018-09-15T17:28:36.546Z,101021.03
2018-09-15T17:31:05.065Z,101019.87
2018-09-15T17:33:33.463Z,101016.81
2018-09-15T17:36:02.166Z,101018.67
2018-09-15T17:38:30.599Z,101017.61
2018-09-15T17:40:59.091Z,101017.40
2018-09-15T17:43:27.620Z,101028.79
2018-09-15T17:45:56.039Z,101020.77
2018-09-15T17:48:24.643Z,101028.74
2018-09-15T17:50:53.460Z,101033.80
2018-09-15T17:53:21.975Z,101036.38
2018-09-15T17:55:50.450Z,101040.05
2018-09-15T17:58:19.451Z,101043.98
2018-09-15T18:00:48.533Z,101049.41
2018-09-15T18:03:16.962Z,101050.53
2018-09-15T18:05:45.750Z,101045.06
2018-09-15T18:08:14.254Z,101053.61
2018-09-15T18:10:42.707Z,101052.97
2018-09-15T18:13:11.484Z,101059.93
2018-09-15T18:15:39.981Z,101057.07
2018-09-15T18:18:08.431Z,101059.44
2018-09-15T18:20:36.952Z,101060.84
2018-09-15T18:23:05.644Z,101065.23
2018-09-15T18:25:34.123Z,101067.77
2018-09-15T18:28:02.825Z,101066.72
2018-09-15T18:30:31.380Z,101068.70
2018-09-15T18:33:00.171Z,101072.23
2018-09-15T18:35:28.775Z,101070.17
2018-09-15T18:37:57.351Z,101068.35
2018-09-15T18:40:25.826Z,101072.79
2018-09-15T18:42:54.941Z,101072.93
2018-09-15T18:45:23.471Z,101074.08
2018-09-15T18:47:52.060Z,101084.33
2018-09-15T18:50:20.547Z,101080.38
2018-09-15T18:52:48.976Z,101082.75
2018-09-15T18:55:17.418Z,101086.98
2018-09-15T18:57:46.398Z,101092.59
2018-09-15T19:00:15.032Z,101090.13
2018-09-15T19:02:43.508Z,101096.36
2018-09-15T19:05:12.047Z,101093.78
2018-09-15T19:07:40.487Z,101098.66
2018-09-15T19:10:09.019Z,101092.75
2018-09-15T19:12:37.660Z,101105.22
2018-09-15T19:15:06.272Z,101101.23
2018-09-15T19:17:34.751Z,101098.37
2018-09-15T19:20:03.307Z,101099.36
2018-09-15T19:22:31.928Z,101101.28
2018-09-15T19:25:00.667Z,101101.54
2018-09-15T19:27:29.322Z,101106.02
2018-09-15T19:29:57.847Z,101110.80
2018-09-15T19:32:26.471Z,101105.08
2018-09-15T19:34:55.067Z,101107.78
2018-09-15T19:37:23.515Z,101105.80
2018-09-15T19:39:52.063Z,101111.79
2018-09-15T19:42:21.819Z,101110.04
2018-09-15T19:44:52.312Z,101118.42
2018-09-15T19:47:20.800Z,101115.17
2018-09-15T19:49:49.425Z,101117.83
2018-09-15T19:52:18.222Z,101114.23
2018-09-15T19:54:46.883Z,101113.49
2018-09-15T19:57:15.429Z,101112.26
2018-09-15T19:59:43.979Z,101115.50
2018-09-15T20:02:12.801Z,101119.98
2018-09-15T20:04:41.263Z,101119.25
2018-09-15T20:07:09.828Z,101123.38
2018-09-15T20:09:38.419Z,101120.65
2018-09-15T20:12:07.069Z,101121.94
2018-09-15T20:14:35.551Z,101130.83
2018-09-15T20:17:02.840Z,101134.47
2018-09-15T20:19:30.056Z,101137.38
2018-09-15T20:21:57.263Z,101136.09
2018-09-15T20:24:25.973Z,101133.80
2018-09-15T20:26:54.445Z,101131.55
2018-09-15T20:29:22.923Z,101131.09
2018-09-15T20:31:52.160Z,101144.92
2018-09-15T20:34:20.619Z,101136.64
2018-09-15T20:36:49.246Z,101138.48
2018-09-15T20:39:18.015Z,101143.84
2018-09-15T20:41:46.523Z,101139.91
2018-09-15T20:44:15.147Z,101151.84
2018-09-15T20:46:43.983Z,101149.77
2018-09-15T20:49:13.435Z,101156.48
2018-09-15T20:51:41.807Z,101156.58
2018-09-15T20:54:10.495Z,101153.18
2018-09-15T20:56:38.946Z,101160.95
2018-09-15T20:59:07.747Z,101156.34
2018-09-15T21:01:36.391Z,101162.25
2018-09-15T21:04:04.863Z,101160.22
2018-09-15T21:06:33.327Z,101167.23
2018-09-15T21:09:01.985Z,101167.77
2018-09-15T21:11:30.479Z,101162.64
2018-09-15T21:13:58.989Z,101164.61
2018-09-15T21:16:27.564Z,101164.36
2018-09-15T21:18:56.024Z,101159.35
2018-09-15T21:21:24.489Z,101160.81
2018-09-15T21:23:53.254Z,101158.58
2018-09-15T21:26:21.687Z,101155.27
2018-09-15T21:28:50.265Z,101160.17
2018-09-15T21:31:18.816Z,101165.58
2018-09-15T21:33:47.410Z,101163.73
2018-09-15T21:36:15.987Z,101160.83
2018-09-15T21:38:44.976Z,101162.70
2018-09-15T21:41:13.355Z,101162.91
2018-09-15T21:43:41.751Z,101167.41
2018-09-15T21:46:10.407Z,101161.97
2018-09-15T21:48:38.787Z,101165.06
2018-09-15T21:51:07.563Z,101167.62
2018-09-15T21:53:36.199Z,101169.69
2018-09-15T21:56:04.740Z,101166.07
2018-09-15T21:58:33.196Z,101169.58
2018-09-15T22:01:02.634Z,101170.53
2018-09-15T22:03:31.607Z,101170.14
2018-09-15T22:06:00.363Z,101169.13
2018-09-15T22:08:29.110Z,101170.03
2018-09-15T22:10:57.562Z,101166.07
2018-09-15T22:13:26.033Z,101161.98
2018-09-15T22:15:54.620Z,101167.30
2018-09-15T22:18:22.971Z,101168.69
2018-09-15T22:20:51.530Z,101168.30
2018-09-15T22:23:20.035Z,101173.38
2018-09-15T22:25:48.543Z,101163.73
2018-09-15T22:28:17.018Z,101169.05
2018-09-15T22:30:45.642Z,101167.23
2018-09-15T22:33:14.150Z,101168.59
2018-09-15T22:35:42.671Z,101172.66
2018-09-15T22:38:11.243Z,101175.84
2018-09-15T22:40:39.762Z,101171.12
2018-09-15T22:43:08.235Z,101177.29
2018-09-15T22:45:36.680Z,101179.00
2018-09-15T22:48:05.128Z,101173.90
2018-09-15T22:50:33.651Z,101169.84
2018-09-15T22:53:02.250Z,101178.41
2018-09-15T22:55:30.719Z,101170.95
2018-09-15T22:57:59.231Z,101172.86
2018-09-15T23:00:27.655Z,101173.56
2018-09-15T23:02:56.043Z,101171.69
2018-09-15T23:05:24.531Z,101167.97
2018-09-15T23:07:53.574Z,101174.08
2018-09-15T23:10:22.123Z,101174.32
2018-09-15T23:12:50.582Z,101169.20
2018-09-15T23:15:19.338Z,101165.33
2018-09-15T23:17:47.747Z,101156.53
2018-09-15T23:20:16.134Z,101159.13
2018-09-15T23:22:44.687Z,101157.69
2018-09-15T23:25:13.198Z,101158.08
2018-09-15T23:27:41.650Z,101153.64
2018-09-15T23:30:10.291Z,101146.52
2018-09-15T23:32:38.775Z,101148.77
2018-09-15T23:35:07.427Z,101146.36
2018-09-15T23:37:35.860Z,101147.38
2018-09-15T23:40:04.310Z,101146.59
2018-09-15T23:42:32.777Z,101147.78
2018-09-15T23:45:01.223Z,101146.11
2018-09-15T23:47:29.649Z,101152.11
2018-09-15T23:49:58.093Z,101152.14
2018-09-15T23:52:26.678Z,101149.20
2018-09-15T23:54:55.131Z,101144.66
2018-09-15T23:57:23.564Z,101147.13
2018-09-15T23:59:52.091Z,101148.31
